createdAt,value
2023-02-24T00:04:52.593Z,6.15
2023-02-24T00:09:56.761Z,5.28
2023-02-24T00:14:59.754Z,5.72
2023-02-24T00:20:02.766Z,4.60
2023-02-24T00:25:08.090Z,4.40
2023-02-24T00:30:12.229Z,5.68
2023-02-24T00:35:15.775Z,4.35
2023-02-24T00:40:23.436Z,4.35
2023-02-24T00:45:30.729Z,6.78
2023-02-24T00:50:33.921Z,4.18
2023-02-24T00:55:38.114Z,4.15
2023-02-24T01:00:43.353Z,4.10
2023-02-24T01:05:46.181Z,3.83
2023-02-24T01:11:18.968Z,3.67
2023-02-24T01:16:22.053Z,3.05
2023-02-24T01:21:24.918Z,5.38
2023-02-24T01:26:30.904Z,5.15
2023-02-24T01:31:33.839Z,4.85
2023-02-24T01:36:36.782Z,3.97
2023-02-24T01:41:44.497Z,3.38
2023-02-24T01:46:49.639Z,3.25
2023-02-24T01:51:55.689Z,4.38
2023-02-24T01:57:00.682Z,3.38
2023-02-24T02:02:07.013Z,4.20
2023-02-24T02:07:12.354Z,2.67
2023-02-24T02:12:17.155Z,3.28
2023-02-24T02:17:31.410Z,3.53
2023-02-24T02:23:06.674Z,3.40
2023-02-24T02:28:45.475Z,2.67
2023-02-24T02:34:22.763Z,3.20
2023-02-24T02:39:35.293Z,2.92
2023-02-24T02:44:41.307Z,3.05
2023-02-24T02:49:49.686Z,3.80
2023-02-24T02:54:57.716Z,3.10
2023-02-24T03:00:09.696Z,2.75
2023-02-24T03:05:21.329Z,2.38
2023-02-24T03:10:27.894Z,3.20
2023-02-24T03:15:33.639Z,3.63
2023-02-24T03:20:43.041Z,4.40
2023-02-24T03:25:53.272Z,3.03
2023-02-24T03:31:03.654Z,2.20
2023-02-24T03:36:08.127Z,3.22
2023-02-24T03:41:12.481Z,2.35
2023-02-24T03:46:16.992Z,3.42
2023-02-24T03:51:24.325Z,3.70
2023-02-24T03:56:35.555Z,2.53
2023-02-24T04:01:47.471Z,5.95
2023-02-24T04:06:56.428Z,2.75
2023-02-24T04:12:05.527Z,2.72
2023-02-24T04:17:13.374Z,2.28
2023-02-24T04:22:24.617Z,2.50
2023-02-24T04:27:29.202Z,3.72
2023-02-24T04:32:32.465Z,3.00
2023-02-24T04:37:39.672Z,4.60
2023-02-24T04:42:46.537Z,2.75
2023-02-24T04:47:51.230Z,3.47
2023-02-24T04:52:57.356Z,3.35
2023-02-24T04:58:01.039Z,2.75
2023-02-24T05:03:06.193Z,2.50
2023-02-24T05:08:11.819Z,2.95
2023-02-24T05:13:16.148Z,3.00
2023-02-24T05:18:20.401Z,2.88
2023-02-24T05:23:27.864Z,2.72
2023-02-24T05:28:31.912Z,2.88
2023-02-24T05:33:35.580Z,4.85
2023-02-24T05:38:39.884Z,4.38
2023-02-24T05:43:44.680Z,4.40
2023-02-24T05:48:52.110Z,2.97
2023-02-24T05:53:56.453Z,4.05
2023-02-24T05:59:03.103Z,6.90
2023-02-24T06:04:08.075Z,3.50
2023-02-24T06:09:14.041Z,3.67
2023-02-24T06:14:17.463Z,7.40
2023-02-24T06:19:20.671Z,3.78
2023-02-24T06:24:27.375Z,4.72
2023-02-24T06:29:31.473Z,4.05
2023-02-24T06:34:34.451Z,2.47
2023-02-24T06:39:38.640Z,3.60
2023-02-24T06:44:42.291Z,3.08
2023-02-24T06:49:45.142Z,3.47
2023-02-24T06:54:52.452Z,4.55
2023-02-24T06:59:56.115Z,4.80
2023-02-24T07:04:58.994Z,3.70
2023-02-24T07:10:03.186Z,3.13
2023-02-24T07:15:07.132Z,2.97
2023-02-24T07:20:25.091Z,3.30
2023-02-24T07:25:33.772Z,4.68
2023-02-24T07:30:37.122Z,4.90
2023-02-24T07:35:41.557Z,4.53
2023-02-24T07:40:46.947Z,5.72
2023-02-24T07:45:50.011Z,5.28
2023-02-24T07:50:53.000Z,4.97
2023-02-24T07:55:57.173Z,5.05
2023-02-24T08:01:08.526Z,6.65
2023-02-24T08:06:15.614Z,6.05
2023-02-24T08:11:24.986Z,6.15
2023-02-24T08:16:39.359Z,5.43
2023-02-24T08:21:47.263Z,5.55
2023-02-24T08:27:04.330Z,6.18
2023-02-24T08:32:09.419Z,5.25
2023-02-24T08:37:15.679Z,5.10
2023-02-24T08:42:20.119Z,5.53
2023-02-24T08:47:31.015Z,6.50
2023-02-24T08:52:35.574Z,6.57
2023-02-24T08:57:39.800Z,6.75
2023-02-24T09:02:42.638Z,6.32
2023-02-24T09:07:54.537Z,3.30
2023-02-24T09:12:58.878Z,3.83
2023-02-24T09:18:07.493Z,3.75
2023-02-24T09:23:20.132Z,4.47
2023-02-24T09:28:25.929Z,3.85
2023-02-24T09:33:38.826Z,2.63
2023-02-24T09:44:18.445Z,2.58
2023-02-24T09:49:24.932Z,2.75
2023-02-24T09:54:35.333Z,6.18
2023-02-24T10:00:01.106Z,3.45
2023-02-24T10:05:12.498Z,2.92
2023-02-24T10:10:20.584Z,2.58
2023-02-24T10:15:59.244Z,3.47
2023-02-24T10:21:15.484Z,4.88
2023-02-24T10:26:31.688Z,3.13
2023-02-24T10:31:46.066Z,2.97
2023-02-24T10:36:50.793Z,3.25
2023-02-24T10:41:57.532Z,3.22
2023-02-24T10:47:11.525Z,2.53
2023-02-24T10:52:33.388Z,4.38
2023-02-24T10:57:58.629Z,2.67
2023-02-24T11:03:22.188Z,3.67
2023-02-24T11:08:54.346Z,3.15
2023-02-24T11:14:16.284Z,2.58
2023-02-24T11:19:21.695Z,3.13
2023-02-24T11:24:24.686Z,3.25
2023-02-24T11:29:39.157Z,3.05
2023-02-24T11:34:51.119Z,2.85
2023-02-24T11:39:59.863Z,4.50
2023-02-24T11:45:09.468Z,2.45
2023-02-24T11:50:26.774Z,4.80
2023-02-24T11:55:38.724Z,2.38
2023-02-24T12:00:48.920Z,2.58
2023-02-24T12:05:57.427Z,2.63
2023-02-24T12:11:07.070Z,3.35
2023-02-24T12:16:16.851Z,3.17
2023-02-24T12:21:30.591Z,2.10
2023-02-24T12:26:42.659Z,2.97
2023-02-24T12:31:54.634Z,3.17
2023-02-24T12:37:22.986Z,3.40
2023-02-24T12:42:34.820Z,3.72
2023-02-24T12:47:50.625Z,5.53
2023-02-24T12:53:06.419Z,2.28
2023-02-24T12:58:14.461Z,1.88
2023-02-24T13:03:29.619Z,2.67
2023-02-24T13:08:55.463Z,2.45
2023-02-24T13:14:04.427Z,3.15
2023-02-24T13:19:18.814Z,2.45
2023-02-24T13:24:25.511Z,2.10
2023-02-24T13:29:28.342Z,3.13
2023-02-24T13:34:33.500Z,2.10
2023-02-24T13:39:41.345Z,2.33
2023-02-24T13:44:49.962Z,2.55
2023-02-24T13:50:03.671Z,2.53
2023-02-24T13:55:24.329Z,3.08
2023-02-24T14:00:41.454Z,2.28
2023-02-24T14:05:44.689Z,2.03
2023-02-24T14:10:54.198Z,2.20
2023-02-24T14:15:57.798Z,1.90
2023-02-24T14:21:00.844Z,2.25
2023-02-24T14:26:08.888Z,1.95
2023-02-24T14:31:14.149Z,2.25
2023-02-24T14:36:20.050Z,3.70
2023-02-24T14:41:27.718Z,2.70
2023-02-24T14:46:31.705Z,4.13
2023-02-24T14:51:36.558Z,2.65
2023-02-24T14:56:41.479Z,3.40
2023-02-24T15:01:48.390Z,3.03
2023-02-24T15:06:51.480Z,2.53
2023-02-24T15:11:56.667Z,3.25
2023-02-24T15:17:02.849Z,3.65
2023-02-24T15:22:18.575Z,3.88
2023-02-24T15:27:26.385Z,2.70
2023-02-24T15:32:31.868Z,2.80
2023-02-24T15:37:42.045Z,2.97
2023-02-24T15:42:51.168Z,3.72
2023-02-24T15:47:56.094Z,4.82
2023-02-24T15:53:01.318Z,2.20
2023-02-24T15:58:05.495Z,1.98
2023-02-24T16:03:08.347Z,3.50
2023-02-24T16:08:12.708Z,2.38
2023-02-24T16:13:20.468Z,4.53
2023-02-24T16:18:26.026Z,2.10
2023-02-24T16:23:28.855Z,2.22
2023-02-24T16:28:33.782Z,1.90
2023-02-24T16:33:51.898Z,2.92
2023-02-24T16:38:56.730Z,2.13
2023-02-24T16:44:00.927Z,5.18
2023-02-24T16:49:03.782Z,2.35
2023-02-24T16:54:06.897Z,4.28
2023-02-24T16:59:11.140Z,4.00
2023-02-24T17:04:14.386Z,9.57
2023-02-24T17:09:18.057Z,8.07
2023-02-24T17:14:22.552Z,9.32
2023-02-24T17:19:25.401Z,6.30
2023-02-24T17:24:28.496Z,8.35
2023-02-24T17:29:32.736Z,7.95
2023-02-24T17:34:35.613Z,4.03
2023-02-24T17:39:38.584Z,7.43
2023-02-24T17:44:42.826Z,7.40
2023-02-24T17:49:45.656Z,9.73
2023-02-24T17:54:48.645Z,9.15
2023-02-24T17:59:52.865Z,16.58
2023-02-24T18:04:55.719Z,16.38
2023-02-24T18:09:59.482Z,12.75
2023-02-24T18:15:08.535Z,13.48
2023-02-24T18:20:14.113Z,17.90
2023-02-24T18:25:17.212Z,27.83
2023-02-24T18:30:21.524Z,18.63
2023-02-24T18:35:24.525Z,13.63
2023-02-24T18:40:28.187Z,16.42
2023-02-24T18:45:32.894Z,15.35
2023-02-24T18:50:35.705Z,13.90
2023-02-24T18:55:38.548Z,13.05
2023-02-24T19:00:45.098Z,14.75
2023-02-24T19:05:48.000Z,13.85
2023-02-24T19:10:50.843Z,13.32
2023-02-24T19:15:55.072Z,13.75
2023-02-24T19:20:58.072Z,13.65
2023-02-24T19:26:00.948Z,10.15
2023-02-24T19:31:05.362Z,14.40
2023-02-24T19:36:09.091Z,13.55
2023-02-24T19:41:12.073Z,8.65
2023-02-24T19:46:18.086Z,12.65
2023-02-24T19:51:22.677Z,8.27
2023-02-24T19:56:26.286Z,14.38
2023-02-24T20:01:31.360Z,7.25
2023-02-24T20:06:36.561Z,9.38
2023-02-24T20:11:40.625Z,6.45
2023-02-24T20:16:45.365Z,6.32
2023-02-24T20:21:48.456Z,8.75
2023-02-24T20:26:51.489Z,6.90
2023-02-24T20:31:55.829Z,8.35
2023-02-24T20:36:58.757Z,8.63
2023-02-24T20:42:02.015Z,8.88
2023-02-24T20:47:06.218Z,8.38
2023-02-24T20:52:09.049Z,6.97
2023-02-24T20:57:11.945Z,9.13
2023-02-24T21:02:16.124Z,6.28
2023-02-24T21:07:18.960Z,7.45
2023-02-24T21:12:21.825Z,5.93
2023-02-24T21:17:26.095Z,6.00
2023-02-24T21:22:31.188Z,7.22
2023-02-24T21:27:34.103Z,6.90
2023-02-24T21:32:38.447Z,8.77
2023-02-24T21:37:41.328Z,6.53
2023-02-24T21:42:47.037Z,22.30
2023-02-24T21:47:51.698Z,14.75
2023-02-24T21:52:55.885Z,10.35
2023-02-24T21:57:58.750Z,8.18
2023-02-24T22:03:02.982Z,7.97
2023-02-24T22:08:05.859Z,8.85
2023-02-24T22:13:08.698Z,7.80
2023-02-24T22:18:13.008Z,6.75
2023-02-24T22:23:15.999Z,8.27
2023-02-24T22:28:18.865Z,7.78
2023-02-24T22:33:23.130Z,6.03
2023-02-24T22:38:26.023Z,6.28
2023-02-24T22:43:29.573Z,7.13
2023-02-24T22:48:35.043Z,6.82
2023-02-24T22:53:40.900Z,7.60
2023-02-24T22:58:45.254Z,7.57
2023-02-24T23:03:49.729Z,5.50
2023-02-24T23:08:53.360Z,4.40
2023-02-24T23:13:57.723Z,5.03
2023-02-24T23:19:04.349Z,5.13
2023-02-24T23:24:10.866Z,5.35
2023-02-24T23:29:15.815Z,6.22
2023-02-24T23:34:20.065Z,4.43
2023-02-24T23:39:23.931Z,4.38
2023-02-24T23:44:27.154Z,4.90
2023-02-24T23:49:46.186Z,4.68
2023-02-24T23:54:52.526Z,3.47
2023-02-24T23:59:55.802Z,5.13
